Time;durP1;ratioP1;P1;durP2;ratioP2;P2;SDS_P1;SDS_P2;PMS_P1;PMS_P2;Temp;Humidity;BMP_temperature;BMP_pressure;BME280_temperature;BME280_humidity;BME280_pressure;Samples;Min_cycle;Max_cycle;Signal;HPM_P1;HPM_P2
2020/12/22 00:02:14;;;;;;;109.40;68.60;;;;;;;0.78;76.81;102303.56;4978024;28;20038;-96
2020/12/22 00:04:41;;;;;;;103.10;69.57;;;;;;;0.88;76.55;102309.84;4984589;28;20114;-95
2020/12/22 00:07:08;;;;;;;113.53;72.72;;;;;;;0.93;76.28;102325.78;4983155;28;20026;-95
2020/12/22 00:09:38;;;;;;;103.57;70.57;;;;;;;0.71;76.94;102324.25;4981418;28;20484;-95
2020/12/22 00:12:16;;;;;;;110.18;74.00;;;;;;;0.77;76.94;102343.59;4976703;28;20030;-94
2020/12/22 00:14:46;;;;;;;116.85;73.30;;;;;;;0.63;77.04;102287.66;4990877;28;20042;-93
2020/12/22 00:17:14;;;;;;;110.30;74.53;;;;;;;0.64;76.73;102273.03;4995048;28;20087;-95
2020/12/22 00:19:41;;;;;;;117.45;76.78;;;;;;;-0.97;77.05;102039.28;4976816;28;20515;-95
2020/12/22 00:22:07;;;;;;;118.72;77.03;;;;;;;0.01;77.36;102200.84;4975613;28;20056;-96
2020/12/22 00:24:34;;;;;;;125.15;82.38;;;;;;;-0.66;77.55;102083.66;4979214;28;20049;-95
2020/12/22 00:27:20;;;;;;;129.50;86.07;;;;;;;0.98;77.17;102318.03;4977121;28;20023;-95
2020/12/22 00:29:50;;;;;;;137.50;81.38;;;;;;;-0.05;77.16;102144.22;5001588;28;20392;-96
2020/12/22 00:32:17;;;;;;;131.80;86.00;;;;;;;0.64;77.28;102263.97;4979682;28;20084;-95
2020/12/22 00:34:44;;;;;;;122.32;81.32;;;;;;;1.15;76.78;102310.06;4979163;28;20034;-96
2020/12/22 00:37:11;;;;;;;120.78;82.25;;;;;;;0.79;75.82;102218.03;4976676;28;20495;-96
2020/12/22 00:39:41;;;;;;;120.22;81.93;;;;;;;1.49;75.42;102325.91;4978313;28;20452;-94
2020/12/22 00:43:20;;;;;;;124.70;82.10;;;;;;;-0.16;74.14;102023.56;4986385;28;20042;-93
2020/12/22 00:46:13;;;;;;;120.07;83.30;;;;;;;1.74;74.52;102335.22;4939338;29;20036;-92
2020/12/22 00:48:45;;;;;;;124.97;83.15;;;;;;;0.84;73.98;102133.94;4950096;29;20102;-93
2020/12/22 00:51:13;;;;;;;116.82;79.88;;;;;;;1.62;74.33;102270.94;4947540;29;20032;-91
2020/12/22 00:53:41;;;;;;;125.85;85.30;;;;;;;1.55;74.62;102261.63;4981450;28;20035;-93
2020/12/22 00:56:12;;;;;;;130.25;86.07;;;;;;;1.49;74.21;102227.63;5005045;28;20035;-93
2020/12/22 00:58:39;;;;;;;116.63;79.88;;;;;;;1.40;74.21;102232.13;4989734;28;20030;-93
2020/12/22 01:01:07;;;;;;;121.68;84.00;;;;;;;2.09;74.14;102326.41;4977299;28;20043;-92
2020/12/22 01:03:34;;;;;;;121.28;80.82;;;;;;;1.82;74.15;102263.47;4990904;28;20041;-92
2020/12/22 01:06:02;;;;;;;121.75;80.97;;;;;;;1.89;74.02;102285.53;4982031;28;20038;-91
2020/12/22 01:08:29;;;;;;;124.88;84.35;;;;;;;0.97;74.32;102136.28;4990791;28;20030;-91
2020/12/22 01:10:56;;;;;;;116.05;80.78;;;;;;;2.23;73.93;102320.41;4990654;28;20054;-92
2020/12/22 01:13:23;;;;;;;118.63;82.75;;;;;;;2.34;73.42;102319.31;4990378;28;20086;-93
2020/12/22 01:15:50;;;;;;;119.72;82.90;;;;;;;2.09;72.24;102234.38;4985458;28;20031;-93
2020/12/22 01:18:16;;;;;;;121.35;83.95;;;;;;;1.19;73.11;102113.19;4992836;28;20099;-91
2020/12/22 01:20:43;;;;;;;111.60;75.55;;;;;;;2.26;72.06;102283.72;4986770;28;20184;-94
2020/12/22 01:23:12;;;;;;;115.68;81.88;;;;;;;2.19;72.00;102229.69;5009281;28;20038;-90
2020/12/22 01:25:40;;;;;;;115.63;78.97;;;;;;;2.76;71.79;102327.84;4990716;28;20019;-92
2020/12/22 01:28:07;;;;;;;109.68;79.35;;;;;;;1.87;70.87;102149.16;4981291;28;20098;-91
2020/12/22 01:30:37;;;;;;;109.38;77.13;;;;;;;2.93;70.62;102317.91;4977425;28;20031;-91
2020/12/22 01:33:05;;;;;;;115.23;79.50;;;;;;;3.02;70.65;102316.94;4998948;28;20526;-90
2020/12/22 01:35:32;;;;;;;112.03;79.72;;;;;;;2.74;70.37;102232.31;4987381;28;20033;-89
2020/12/22 01:38:00;;;;;;;112.05;77.28;;;;;;;1.84;70.57;102126.75;4987871;28;20027;-88
2020/12/22 01:40:26;;;;;;;110.13;76.45;;;;;;;2.98;69.21;102266.31;5012262;28;20022;-92
2020/12/22 01:42:53;;;;;;;113.25;75.68;;;;;;;3.06;68.98;102276.41;4999624;28;20041;-95
2020/12/22 01:45:23;;;;;;;117.40;78.90;;;;;;;1.87;69.06;102093.66;4998810;28;20044;-91
2020/12/22 01:47:51;;;;;;;112.72;74.63;;;;;;;3.07;69.26;102270.78;5007242;28;20061;-93
2020/12/22 01:50:19;;;;;;;107.88;78.22;;;;;;;3.45;69.24;102294.25;5003056;28;20056;-91
2020/12/22 01:53:00;;;;;;;108.55;74.15;;;;;;;0.45;68.32;101837.03;5013403;28;20091;-89
2020/12/22 01:55:27;;;;;;;111.95;76.70;;;;;;;2.32;69.49;102158.19;5012461;28;20029;-92
2020/12/22 01:57:57;;;;;;;114.22;77.43;;;;;;;2.77;69.62;102201.00;5012448;28;20030;-92
2020/12/22 02:00:24;;;;;;;102.07;73.37;;;;;;;2.75;69.37;102217.59;5011331;28;20054;-90
2020/12/22 02:02:51;;;;;;;113.45;73.07;;;;;;;3.13;69.52;102289.31;5012024;28;20383;-89
2020/12/22 02:05:18;;;;;;;97.05;66.68;;;;;;;2.21;69.04;102083.81;5011269;28;20038;-92
2020/12/22 02:07:45;;;;;;;101.20;67.60;;;;;;;3.35;68.61;102256.91;5010327;28;20030;-92
2020/12/22 02:10:24;;;;;;;96.15;67.68;;;;;;;0.46;68.01;101767.94;5000372;28;20037;-91
2020/12/22 02:12:51;;;;;;;103.55;65.10;;;;;;;3.79;66.78;102298.81;5002260;28;20116;-88
2020/12/22 02:15:18;;;;;;;88.50;60.15;;;;;;;3.85;67.24;102298.16;4998069;28;20059;-90
2020/12/22 02:17:45;;;;;;;84.50;62.50;;;;;;;3.24;66.92;102172.31;5011857;28;20497;-89
2020/12/22 02:20:12;;;;;;;79.95;59.30;;;;;;;3.89;66.42;102235.66;4996313;28;20045;-89
2020/12/22 02:22:42;;;;;;;89.18;60.85;;;;;;;2.60;66.05;102045.91;4994445;28;20084;-87
2020/12/22 02:25:21;;;;;;;92.97;61.17;;;;;;;2.17;65.93;101965.78;4995325;28;20418;-91
2020/12/22 02:27:52;;;;;;;82.97;61.78;;;;;;;4.07;66.33;102306.75;5009789;28;20046;-93
2020/12/22 02:30:19;;;;;;;85.35;58.67;;;;;;;3.69;66.03;102244.19;4999943;28;20033;-93
2020/12/22 02:32:46;;;;;;;82.95;59.05;;;;;;;3.97;66.31;102231.03;5015303;28;20042;-91
2020/12/22 02:35:13;;;;;;;86.47;59.35;;;;;;;3.12;66.42;102120.66;5020365;28;20034;-91
2020/12/22 02:37:40;;;;;;;81.07;53.85;;;;;;;3.99;66.47;102263.78;5005347;28;20034;-91
2020/12/22 02:40:07;;;;;;;82.40;58.42;;;;;;;2.52;66.50;102029.50;5007441;28;20042;-92
2020/12/22 02:42:34;;;;;;;81.47;58.60;;;;;;;3.19;67.52;102189.25;5000051;28;20471;-89
2020/12/22 02:45:01;;;;;;;80.43;58.53;;;;;;;2.71;67.25;102063.03;5021212;28;20030;-92
2020/12/22 02:47:28;;;;;;;88.30;62.85;;;;;;;3.12;67.59;102178.13;5018005;28;20034;-92
2020/12/22 02:49:55;;;;;;;90.93;62.78;;;;;;;3.64;68.26;102266.56;4998681;28;20041;-91
2020/12/22 02:52:22;;;;;;;93.80;65.68;;;;;;;3.34;67.85;102199.56;4999355;28;20037;-93
2020/12/22 02:54:52;;;;;;;87.50;62.20;;;;;;;3.78;68.23;102270.56;5006034;28;20036;-92
2020/12/22 02:57:19;;;;;;;73.78;51.03;;;;;;;2.04;67.36;101953.41;5000327;28;20030;-91
2020/12/22 02:59:57;;;;;;;83.13;57.85;;;;;;;1.69;67.37;101888.91;5018053;28;20040;-94
2020/12/22 03:02:24;;;;;;;88.65;63.08;;;;;;;3.84;67.72;102260.81;5019002;28;20038;-94
2020/12/22 03:04:51;;;;;;;90.20;64.15;;;;;;;1.85;67.52;101915.44;5003816;28;20104;-93
2020/12/22 03:07:18;;;;;;;84.50;61.92;;;;;;;3.32;66.71;102114.84;5016964;28;20027;-93
2020/12/22 03:09:45;;;;;;;90.30;61.88;;;;;;;3.37;65.78;102078.75;5020972;28;20089;-94
2020/12/22 03:12:34;;;;;;;88.75;64.65;;;;;;;3.85;65.72;102117.31;5025990;28;20529;-96
2020/12/22 03:15:19;;;;;;;87.43;62.75;;;;;;;3.14;66.06;102074.81;5014051;28;20089;-94
2020/12/22 03:17:46;;;;;;;96.10;65.15;;;;;;;4.05;66.74;102215.63;4998872;28;20038;-90
2020/12/22 03:20:14;;;;;;;82.93;57.10;;;;;;;3.25;65.60;102042.66;4998692;28;20099;-87
2020/12/22 03:22:42;;;;;;;86.78;59.95;;;;;;;3.34;64.13;102014.28;4999741;28;20021;-89
2020/12/22 03:25:11;;;;;;;78.90;55.65;;;;;;;3.19;63.90;101994.06;5016649;28;20041;-90
2020/12/22 03:27:42;;;;;;;77.35;54.63;;;;;;;4.41;63.84;102219.91;5031520;28;20030;-90
2020/12/22 03:30:23;;;;;;;80.10;57.38;;;;;;;1.83;63.77;101817.28;5002741;28;20033;-94
2020/12/22 03:32:54;;;;;;;79.25;55.72;;;;;;;3.54;63.37;102030.34;5016470;28;20128;-91
2020/12/22 03:35:21;;;;;;;77.00;56.17;;;;;;;3.54;63.67;102008.44;4993839;28;20025;-89
2020/12/22 03:37:48;;;;;;;81.63;55.13;;;;;;;4.03;62.68;102065.06;4996183;28;20050;-91
2020/12/22 03:40:16;;;;;;;81.30;54.17;;;;;;;3.82;61.84;102028.09;4998271;28;20046;-92
2020/12/22 03:42:43;;;;;;;83.03;54.33;;;;;;;4.95;61.45;102172.63;5016567;28;20033;-88
2020/12/22 03:45:10;;;;;;;73.97;52.47;;;;;;;4.08;61.23;102020.69;4995996;28;20038;-91
2020/12/22 03:47:37;;;;;;;76.55;54.15;;;;;;;4.80;61.01;102131.34;4999015;28;20030;-91
2020/12/22 03:50:08;;;;;;;73.88;49.78;;;;;;;4.78;59.82;102137.03;5000546;28;20037;-91
2020/12/22 03:52:37;;;;;;;68.75;47.88;;;;;;;4.82;59.02;102126.56;5020089;28;20101;-94
2020/12/22 03:55:07;;;;;;;73.67;50.07;;;;;;;4.69;58.82;102093.34;5021769;28;20037;-92
2020/12/22 03:57:37;;;;;;;74.43;53.95;;;;;;;4.63;59.08;102081.16;5018253;28;20606;-92
2020/12/22 04:00:06;;;;;;;76.45;47.50;;;;;;;3.64;57.49;101890.50;5016070;28;20030;-89
2020/12/22 04:02:34;;;;;;;67.53;46.38;;;;;;;4.65;57.52;102123.00;5017506;28;20455;-94
2020/12/22 04:05:01;;;;;;;63.17;43.13;;;;;;;4.99;56.86;102160.25;4997702;28;20435;-92
2020/12/22 04:07:28;;;;;;;67.40;43.03;;;;;;;3.11;58.39;101924.63;5017416;28;20034;-93
2020/12/22 04:09:55;;;;;;;72.72;45.30;;;;;;;4.34;57.89;102082.66;5002676;28;20041;-93
2020/12/22 04:12:28;;;;;;;68.45;42.83;;;;;;;3.86;57.50;102044.19;5023729;28;20034;-95
2020/12/22 04:14:55;;;;;;;65.40;43.30;;;;;;;4.10;57.75;102117.31;5016476;28;20061;-93
2020/12/22 04:17:22;;;;;;;71.07;46.58;;;;;;;3.02;58.11;101928.38;5009834;28;20029;-96
2020/12/22 04:19:54;;;;;;;63.58;40.42;;;;;;;3.92;55.63;102022.44;5011560;28;20022;-95
2020/12/22 04:24:56;;;;;;;54.63;38.30;;;;;;;2.78;55.66;101860.84;5613930;23;20062;-96
2020/12/22 04:27:23;;;;;;;64.70;40.67;;;;;;;3.42;55.87;101961.38;4992120;28;20034;-95
2020/12/22 04:29:50;;;;;;;65.25;36.92;;;;;;;4.16;53.67;102089.19;5159335;23;20058;-87
2020/12/22 04:32:16;;;;;;;55.38;35.58;;;;;;;4.58;54.44;102163.16;4991320;28;20057;-90
2020/12/22 04:34:43;;;;;;;52.15;36.13;;;;;;;3.35;54.75;101965.84;5009820;28;20030;-93
2020/12/22 04:37:10;;;;;;;63.80;36.45;;;;;;;4.79;54.58;102160.69;5011004;28;20053;-92
2020/12/22 04:39:37;;;;;;;56.15;35.40;;;;;;;3.94;54.75;101984.72;5010902;28;20011;-93
2020/12/22 04:42:05;;;;;;;52.50;33.53;;;;;;;3.33;53.88;101935.88;4994789;28;20053;-93
2020/12/22 04:44:32;;;;;;;57.42;33.75;;;;;;;4.78;54.05;102191.91;5022628;28;20164;-93
2020/12/22 04:47:00;;;;;;;47.25;29.75;;;;;;;4.74;52.66;102130.16;5012333;28;20041;-94
2020/12/22 04:49:32;;;;;;;44.75;29.13;;;;;;;4.42;51.50;102057.06;5016474;28;20054;-92
2020/12/22 04:52:10;;;;;;;51.58;33.08;;;;;;;2.70;50.76;101771.44;5019330;28;20062;-94
2020/12/22 04:54:38;;;;;;;41.78;27.40;;;;;;;5.19;50.56;102170.81;4993243;28;20551;-91
2020/12/22 04:57:06;;;;;;;42.80;27.30;;;;;;;5.15;50.09;102120.03;4995277;28;20052;-91
2020/12/22 04:59:37;;;;;;;42.10;27.95;;;;;;;5.13;50.46;102120.22;4994468;28;20479;-93
2020/12/22 05:02:04;;;;;;;39.60;26.50;;;;;;;5.31;50.47;102146.56;5010082;28;20074;-95
2020/12/22 05:04:35;;;;;;;37.65;25.05;;;;;;;4.87;50.09;102074.72;5009747;28;20037;-95
2020/12/22 05:07:03;;;;;;;36.55;23.70;;;;;;;3.90;48.67;101953.25;5009882;28;20408;-95
2020/12/22 05:09:30;;;;;;;38.15;25.42;;;;;;;4.80;48.61;102081.94;4989899;28;20015;-93
2020/12/22 05:11:57;;;;;;;43.72;24.13;;;;;;;4.30;50.01;102051.13;5009360;28;20102;-94
2020/12/22 05:14:31;;;;;;;38.67;25.45;;;;;;;4.58;51.40;102078.09;4992309;28;20352;-94
2020/12/22 05:16:58;;;;;;;43.83;24.88;;;;;;;4.96;51.33;102144.16;5008892;28;20380;-94
2020/12/22 05:19:33;;;;;;;35.78;25.10;;;;;;;4.91;50.83;102135.59;4997474;28;20026;-94
2020/12/22 05:22:03;;;;;;;34.17;24.40;;;;;;;4.19;50.35;102020.31;5008869;28;20033;-94
2020/12/22 05:24:32;;;;;;;36.13;25.25;;;;;;;4.52;50.80;102086.00;5007522;28;20026;-94
2020/12/22 05:27:00;;;;;;;37.92;26.63;;;;;;;4.18;50.91;102043.28;5008273;28;20415;-95
2020/12/22 05:29:28;;;;;;;36.90;23.15;;;;;;;3.49;50.52;101954.19;4991476;28;20054;-95
2020/12/22 05:31:55;;;;;;;37.53;23.13;;;;;;;4.65;51.31;102106.56;5007861;28;20026;-95
2020/12/22 05:34:26;;;;;;;40.38;24.65;;;;;;;4.84;51.04;102151.06;5007911;28;20538;-93
2020/12/22 05:36:58;;;;;;;37.03;24.30;;;;;;;2.59;49.83;101769.91;5008753;28;20032;-93
2020/12/22 05:39:26;;;;;;;38.65;22.98;;;;;;;4.11;51.26;102028.56;4992899;28;20026;-93
2020/12/22 05:41:53;;;;;;;36.55;24.23;;;;;;;4.64;50.17;102091.13;5003495;28;20038;-92
2020/12/22 05:44:25;;;;;;;33.08;21.95;;;;;;;4.85;50.17;102141.78;4994141;28;20395;-92
2020/12/22 05:46:52;;;;;;;36.63;21.83;;;;;;;4.70;50.41;102109.59;4994480;28;20069;-92
2020/12/22 05:49:19;;;;;;;47.03;26.05;;;;;;;4.47;50.24;102085.66;4988201;28;20026;-95
2020/12/22 05:51:48;;;;;;;36.92;22.50;;;;;;;4.07;49.89;102002.53;5012444;28;20030;-95
2020/12/22 05:54:17;;;;;;;37.90;22.05;;;;;;;4.95;49.46;102142.44;5012492;28;20034;-93
2020/12/22 05:56:45;;;;;;;37.38;24.38;;;;;;;4.69;49.22;102109.78;5012699;28;20031;-94
2020/12/22 05:59:22;;;;;;;36.53;24.75;;;;;;;4.25;48.86;102043.41;5007553;28;20088;-93
2020/12/22 06:01:49;;;;;;;33.88;22.17;;;;;;;4.83;49.57;102136.50;4999037;28;20066;-94
2020/12/22 06:04:18;;;;;;;37.42;23.55;;;;;;;4.91;50.54;102149.31;5011295;28;20036;-91
2020/12/22 06:06:46;;;;;;;37.08;23.52;;;;;;;4.97;50.14;102143.13;5009392;28;20038;-90
2020/12/22 06:09:13;;;;;;;40.88;24.80;;;;;;;4.97;50.00;102132.13;4991815;28;20030;-91
2020/12/22 06:11:40;;;;;;;32.90;21.40;;;;;;;3.64;49.93;101906.91;5010212;28;20035;-90
2020/12/22 06:14:07;;;;;;;37.58;22.67;;;;;;;4.68;51.33;102081.50;4987394;28;20483;-90
2020/12/22 06:16:34;;;;;;;34.92;23.40;;;;;;;4.71;51.05;102088.50;4995033;28;20033;-91
2020/12/22 06:19:02;;;;;;;43.33;26.40;;;;;;;5.05;51.27;102139.50;5012384;28;20748;-92
2020/12/22 06:21:29;;;;;;;38.70;22.98;;;;;;;4.69;51.60;102088.69;5011597;28;20109;-93
2020/12/22 06:23:57;;;;;;;36.92;23.70;;;;;;;4.94;52.13;102140.75;5010572;28;20065;-93
2020/12/22 06:26:24;;;;;;;39.97;23.15;;;;;;;4.73;52.71;102112.00;4994275;28;20030;-91
2020/12/22 06:28:57;;;;;;;37.40;22.73;;;;;;;3.86;52.56;101962.84;5011444;28;20514;-93
2020/12/22 06:31:32;;;;;;;42.78;24.25;;;;;;;4.06;52.28;101989.84;5023820;28;20041;-93
2020/12/22 06:33:59;;;;;;;37.60;23.98;;;;;;;4.37;52.25;102046.63;5019498;28;20044;-90
2020/12/22 06:36:26;;;;;;;43.17;25.13;;;;;;;5.00;51.33;102137.25;5000397;28;20122;-89
2020/12/22 06:39:02;;;;;;;40.28;23.08;;;;;;;4.92;50.53;102131.81;5005623;28;20091;-92
2020/12/22 06:41:35;;;;;;;38.85;25.13;;;;;;;5.10;49.88;102130.72;5008817;28;20032;-90
2020/12/22 06:44:25;;;;;;;33.72;21.90;;;;;;;5.01;50.10;102125.28;5020991;28;20040;-89
2020/12/22 06:46:53;;;;;;;43.67;26.23;;;;;;;4.87;50.29;102106.81;5019463;28;20030;-88
2020/12/22 06:49:50;;;;;;;48.95;24.67;;;;;;;4.81;50.46;102091.88;5014901;28;20064;-87
2020/12/22 06:52:34;;;;;;;34.97;22.83;;;;;;;5.10;51.03;102142.53;5002556;28;20022;-87
2020/12/22 06:55:05;;;;;;;32.85;21.27;;;;;;;4.99;51.74;102121.81;4996445;28;20026;-88
2020/12/22 06:57:49;;;;;;;41.00;25.83;;;;;;;4.63;51.77;102053.72;5021121;28;20022;-89
2020/12/22 07:00:29;;;;;;;38.65;23.98;;;;;;;5.30;51.80;102136.63;5001027;28;20030;-87
2020/12/22 07:03:12;;;;;;;45.03;25.73;;;;;;;4.24;52.65;102015.13;5015739;28;20049;-86
2020/12/22 07:05:44;;;;;;;37.88;24.08;;;;;;;4.57;52.40;102074.50;5017121;28;20292;-87
2020/12/22 07:08:12;;;;;;;39.58;23.08;;;;;;;4.97;52.70;102156.84;5003870;28;20030;-88
2020/12/22 07:10:50;;;;;;;37.63;23.35;;;;;;;4.97;52.99;102142.25;4995905;28;20376;-89
2020/12/22 07:13:19;;;;;;;39.65;24.98;;;;;;;4.97;52.98;102145.88;5013055;28;20037;-88
2020/12/22 07:15:48;;;;;;;35.97;22.50;;;;;;;4.99;53.62;102137.47;5012374;28;20060;-87
2020/12/22 07:18:31;;;;;;;42.05;25.17;;;;;;;4.11;54.05;102045.00;5017851;28;20029;-87
2020/12/22 07:21:00;;;;;;;37.60;26.08;;;;;;;4.36;54.14;102066.88;5015543;28;20034;-84
2020/12/22 07:23:27;;;;;;;40.15;24.83;;;;;;;4.01;54.36;102019.66;5000731;28;20368;-89
2020/12/22 07:25:57;;;;;;;38.55;24.88;;;;;;;3.81;54.25;101998.16;5020216;28;20093;-89
2020/12/22 07:28:24;;;;;;;43.03;24.02;;;;;;;4.79;54.68;102163.44;5012752;28;20108;-88
2020/12/22 07:30:51;;;;;;;40.83;24.65;;;;;;;4.79;54.48;102146.97;5013462;28;20061;-91
2020/12/22 07:33:20;;;;;;;46.33;28.23;;;;;;;4.26;54.24;102063.47;4999481;28;20033;-88
2020/12/22 07:35:49;;;;;;;43.38;24.17;;;;;;;4.42;55.02;102071.66;5004030;28;20025;-88
2020/12/22 07:38:16;;;;;;;36.63;26.55;;;;;;;4.84;54.74;102156.53;5009862;28;20033;-89
2020/12/22 07:40:43;;;;;;;39.08;25.75;;;;;;;4.88;54.19;102158.75;5002953;28;20045;-91
2020/12/22 07:43:12;;;;;;;35.28;24.10;;;;;;;3.82;55.22;102017.13;5002292;28;20038;-87
2020/12/22 07:45:52;;;;;;;37.50;27.25;;;;;;;4.66;56.25;102157.63;5016630;28;20050;-91
2020/12/22 07:48:20;;;;;;;39.10;24.48;;;;;;;4.15;57.26;102081.16;5019390;28;20018;-90
2020/12/22 07:50:53;;;;;;;45.25;26.92;;;;;;;3.42;57.01;101964.13;5001097;28;20045;-92
2020/12/22 07:53:21;;;;;;;43.00;25.92;;;;;;;3.43;57.24;101985.00;5021190;28;20053;-91
2020/12/22 07:55:50;;;;;;;31.77;21.15;;;;;;;4.10;56.42;102057.00;5017605;28;20104;-93
2020/12/22 07:58:18;;;;;;;40.83;26.80;;;;;;;4.30;56.63;102111.44;5001721;28;20018;-94
2020/12/22 08:00:46;;;;;;;41.45;25.35;;;;;;;3.40;56.10;101963.44;4998452;28;20036;-91
2020/12/22 08:03:17;;;;;;;48.22;28.85;;;;;;;3.72;57.24;102027.44;5014557;28;20049;-94
2020/12/22 08:06:01;;;;;;;48.50;28.27;;;;;;;3.91;57.28;102048.13;5016563;28;20635;-89
2020/12/22 08:08:29;;;;;;;51.72;28.15;;;;;;;4.17;57.27;102107.34;5012510;28;20402;-89
2020/12/22 08:10:56;;;;;;;46.97;28.20;;;;;;;3.53;57.46;101998.50;5008114;28;20026;-88
2020/12/22 08:13:26;;;;;;;46.08;28.92;;;;;;;3.83;57.69;102068.19;5021224;28;20022;-86
2020/12/22 08:15:54;;;;;;;45.55;28.75;;;;;;;3.41;57.94;102003.47;5023688;28;20034;-90
2020/12/22 08:18:24;;;;;;;49.80;27.38;;;;;;;3.40;57.76;101997.13;5003337;28;20014;-86
2020/12/22 08:20:52;;;;;;;48.33;26.63;;;;;;;4.40;57.72;102133.19;5016087;28;20506;-87
2020/12/22 08:23:20;;;;;;;57.42;29.27;;;;;;;4.37;58.07;102157.19;5006764;28;20033;-87
2020/12/22 08:25:50;;;;;;;45.67;28.00;;;;;;;4.38;58.14;102169.00;5024787;28;20034;-88
2020/12/22 08:28:27;;;;;;;46.17;31.17;;;;;;;4.30;58.81;102163.53;5020198;28;20037;-89
2020/12/22 08:30:55;;;;;;;48.08;28.80;;;;;;;3.06;58.64;101961.72;5022170;28;20762;-86
2020/12/22 08:33:22;;;;;;;49.58;30.65;;;;;;;3.22;59.54;101999.19;5006450;28;20052;-94
2020/12/22 08:35:53;;;;;;;47.75;28.98;;;;;;;2.40;61.42;101869.50;5020514;28;20030;-94
2020/12/22 08:43:53;;;;;;;45.67;27.77;;;;;;;3.14;61.59;101989.09;5547115;23;20499;-94
2020/12/22 08:46:35;;;;;;;43.75;29.00;;;;;;;3.06;61.46;101978.13;4995109;28;20034;-95
2020/12/22 08:49:21;;;;;;;44.17;27.35;;;;;;;3.27;61.92;102016.81;4992997;28;20053;-92
2020/12/22 08:51:49;;;;;;;46.30;28.23;;;;;;;3.97;61.24;102129.66;4986894;28;20030;-91
2020/12/22 08:54:16;;;;;;;43.63;29.02;;;;;;;4.16;61.59;102171.41;5004528;28;20033;-90
2020/12/22 08:56:44;;;;;;;51.40;31.33;;;;;;;2.60;61.79;101922.88;4995779;28;20117;-89
2020/12/22 08:59:12;;;;;;;44.50;31.20;;;;;;;3.73;61.42;102110.47;5000331;28;20042;-89
2020/12/22 09:01:51;;;;;;;50.92;29.92;;;;;;;3.72;61.72;102125.16;5001390;28;20014;-88
2020/12/22 09:04:27;;;;;;;45.10;28.88;;;;;;;3.72;61.33;102115.09;5005061;28;20034;-88
2020/12/22 09:06:54;;;;;;;46.33;29.38;;;;;;;4.16;61.23;102201.56;4982254;28;20049;-86
2020/12/22 09:09:30;;;;;;;41.88;27.10;;;;;;;4.40;59.82;102190.78;4988435;28;20045;-88
2020/12/22 09:12:11;;;;;;;47.92;28.05;;;;;;;4.19;60.18;102162.88;4994299;28;20038;-89
2020/12/22 09:14:49;;;;;;;49.05;31.35;;;;;;;3.80;60.14;102112.34;5000608;28;20034;-88
2020/12/22 09:17:29;;;;;;;49.33;30.58;;;;;;;4.28;60.32;102187.53;5002413;28;20040;-88
2020/12/22 09:19:56;;;;;;;;;;;;;;;4.31;60.04;102184.44;4985203;28;20090;-88
2020/12/22 09:22:26;;;;;;;45.97;30.02;;;;;;;4.23;60.10;102199.88;5004710;28;19944;-90
2020/12/22 09:24:58;;;;;;;46.45;29.77;;;;;;;4.22;59.96;102189.94;4996741;28;20030;-87
2020/12/22 09:27:29;;;;;;;47.28;28.77;;;;;;;4.18;59.79;102190.44;4993786;28;20034;-88
2020/12/22 09:29:57;;;;;;;40.75;27.25;;;;;;;4.01;59.24;102141.13;5016530;28;20030;-89
2020/12/22 09:32:25;;;;;;;46.05;27.20;;;;;;;4.24;59.92;102198.81;5024306;28;20027;-89
2020/12/22 09:34:52;;;;;;;50.22;29.33;;;;;;;3.25;59.83;102053.59;5004270;28;20089;-88
2020/12/22 09:37:23;;;;;;;46.70;27.70;;;;;;;3.88;59.94;102149.88;5025327;28;20451;-86
2020/12/22 09:39:50;;;;;;;;;;;;;;;4.12;60.53;102197.47;5001184;28;20058;-88
2020/12/22 09:42:18;;;;;;;56.50;29.80;;;;;;;3.70;60.10;102122.63;5008037;28;20016;-92
2020/12/22 09:44:46;;;;;;;53.20;31.70;;;;;;;4.22;59.84;102197.31;4991313;28;20072;-78
2020/12/22 09:47:13;;;;;;;45.53;29.63;;;;;;;3.07;59.57;102001.75;5003826;28;20564;-88
2020/12/22 09:49:40;;;;;;;47.97;28.33;;;;;;;4.09;60.37;102219.72;4998260;28;20030;-85
2020/12/22 09:52:07;;;;;;;49.97;29.33;;;;;;;4.08;59.87;102196.97;4989781;28;20026;-85
2020/12/22 09:54:34;;;;;;;48.03;30.75;;;;;;;2.41;59.31;101921.28;4993565;28;20030;-87
2020/12/22 09:57:02;;;;;;;50.47;29.80;;;;;;;3.86;60.09;102164.75;4997370;28;20033;-88
2020/12/22 09:59:30;;;;;;;46.95;31.83;;;;;;;3.39;60.89;102115.91;5006331;28;20058;-85
2020/12/22 10:01:59;;;;;;;45.50;29.13;;;;;;;3.77;60.26;102183.06;5009812;28;20026;-89
2020/12/22 10:04:27;;;;;;;50.80;30.02;;;;;;;3.97;60.50;102203.63;4991886;28;20038;-88
2020/12/22 10:06:54;;;;;;;49.47;31.52;;;;;;;3.90;60.82;102199.88;5001370;28;20087;-86
2020/12/22 10:09:21;;;;;;;47.55;30.08;;;;;;;4.00;60.22;102205.19;4982515;28;20165;-89
2020/12/22 10:11:48;;;;;;;47.00;29.65;;;;;;;4.08;60.18;102201.56;4981858;28;20085;-90
2020/12/22 10:14:16;;;;;;;46.88;29.17;;;;;;;3.98;59.76;102201.75;4998876;28;20034;-89
2020/12/22 10:16:43;;;;;;;45.35;29.08;;;;;;;3.49;59.96;102125.84;4999092;28;20472;-89
2020/12/22 10:19:10;;;;;;;43.08;29.00;;;;;;;3.69;59.97;102175.69;4980370;28;20027;-88
2020/12/22 10:21:37;;;;;;;51.53;31.35;;;;;;;3.91;60.48;102203.44;4994891;28;20037;-88
2020/12/22 10:24:04;;;;;;;53.75;31.38;;;;;;;2.65;59.99;101981.66;4987471;28;20526;-86
2020/12/22 10:26:32;;;;;;;49.65;30.42;;;;;;;3.31;60.33;102096.72;5007961;28;20049;-87
2020/12/22 10:28:59;;;;;;;48.67;30.48;;;;;;;2.74;59.48;101997.09;5023027;28;20034;-87
2020/12/22 10:31:27;;;;;;;47.78;29.48;;;;;;;3.95;60.45;102205.69;5001681;28;20454;-88
2020/12/22 10:33:56;;;;;;;47.40;29.38;;;;;;;3.27;60.39;102106.31;4989505;28;20049;-87
2020/12/22 10:36:25;;;;;;;49.03;29.88;;;;;;;2.41;60.92;101964.16;4990098;28;20112;-89
2020/12/22 10:38:53;;;;;;;50.92;32.53;;;;;;;2.76;61.11;102037.94;5007009;28;20093;-85
2020/12/22 10:41:21;;;;;;;49.90;31.60;;;;;;;3.65;60.30;102166.97;4988543;28;20121;-85
2020/12/22 10:43:49;;;;;;;48.58;30.33;;;;;;;2.91;61.14;102043.63;5019859;28;20048;-85
2020/12/22 10:46:17;;;;;;;56.15;32.35;;;;;;;3.63;61.23;102170.91;4985505;28;20525;-85
2020/12/22 10:48:49;;;;;;;50.38;31.58;;;;;;;1.77;61.02;101864.38;4986262;28;20022;-86
2020/12/22 10:51:16;;;;;;;50.13;34.15;;;;;;;2.38;60.87;101961.78;5014922;28;20045;-85
2020/12/22 10:53:43;;;;;;;52.88;32.20;;;;;;;2.80;60.89;102044.78;5000894;28;20112;-86
2020/12/22 10:56:16;;;;;;;48.70;30.80;;;;;;;3.63;61.25;102177.22;5007052;28;20033;-85
2020/12/22 10:58:44;;;;;;;53.53;32.92;;;;;;;3.81;61.03;102200.88;5023004;28;20110;-87
2020/12/22 11:01:15;;;;;;;54.92;30.27;;;;;;;3.19;60.92;102103.53;5003456;28;20022;-86
2020/12/22 11:03:43;;;;;;;54.97;31.90;;;;;;;3.68;61.39;102204.97;4991233;28;20038;-89
2020/12/22 11:08:43;;;;;;;54.08;32.17;;;;;;;3.70;61.66;102205.66;5001935;28;20438;-92
2020/12/22 11:11:10;;;;;;;57.70;33.03;;;;;;;2.96;61.53;102083.13;5010399;28;20501;-89
2020/12/22 11:13:38;;;;;;;53.42;32.33;;;;;;;3.20;61.91;102135.38;4988242;28;20025;-90
2020/12/22 11:16:10;;;;;;;50.08;32.33;;;;;;;2.63;61.72;102063.00;5008298;28;20033;-91
2020/12/22 11:18:40;;;;;;;47.03;32.95;;;;;;;3.56;61.69;102212.63;4994617;28;20026;-89
2020/12/22 11:21:16;;;;;;;57.33;34.15;;;;;;;3.00;61.79;102127.44;5005308;28;20493;-90
2020/12/22 11:23:47;;;;;;;56.80;35.08;;;;;;;3.52;62.28;102240.53;4989190;28;20081;-90
2020/12/22 11:26:19;;;;;;;59.47;36.75;;;;;;;3.19;62.01;102136.38;4987126;28;20498;-89
2020/12/22 11:28:46;;;;;;;51.80;34.03;;;;;;;3.41;61.65;102193.25;4994533;28;20085;-91
2020/12/22 11:31:13;;;;;;;54.80;35.30;;;;;;;2.64;62.30;102072.91;5003892;28;20403;-87
2020/12/22 11:33:41;;;;;;;55.78;35.40;;;;;;;2.49;62.68;102078.16;4985783;28;20372;-88
2020/12/22 11:36:11;;;;;;;53.60;35.67;;;;;;;2.95;62.88;102148.94;4992446;28;20030;-89
2020/12/22 11:38:39;;;;;;;56.17;36.47;;;;;;;3.49;63.09;102225.28;4996923;28;20027;-88
2020/12/22 11:41:06;;;;;;;53.38;33.30;;;;;;;3.48;63.29;102223.56;4992488;28;20041;-91